Main page
METAR-TAF:

METAR-TAF

Airports :

Oxford, England

Oxford Airport

latitude: 51-50-13N, longitude: 1-19-12W, elevation: 82 m

Current weather observation

The report was made 1 hour and 2 minutes ago, at 12:50 UTC
Wind 14 kt from the West/Southwest
Temperature 21°C
Humidity 60%
Pressure 1013 hPa
Visibility 10 km or more
Few clouds at a height of 2800 ft
Broken clouds at a height of 3400 ft

METAR: EGTK 241250Z 24014KT 9999 FEW028 BKN034 21/13 Q1013

Time: 14:52 (13:52 UTC)

Forecast

The report was made 2 hours and 53 minutes ago, at 10:59 UTC
Forecast valid from 24 at 12 UTC to 24 at 21 UTC
Wind 12 kt from the West/Southwest
Visibility 10 km or more
Scattered clouds at a height of 2000 ft

TAF: EGTK 241059Z 2412/2421 24012KT 9999 SCT020

Weather observations and forecasts of more than 4000 airports (METAR and TAF reports).

The available stations are represented by yellow and red dots on the map.

Hover mouse over dot to see the name of the station.

Then click to see weather observations and forecasts.

To change the map : click on the green buttons with a black cross to zoom in, on the green button with a dash to zoom out, or on the green arrows for adjacent maps.


METAR-TAF: